Sunflower Hakata — JL6711 — position and weather

sailwx.info

Track history (hours):
 
Tides and Currents Weather Stations Pressure Air Temp Water Temp Dewpoint Dewpoint Depression Visibility Wind Speed Wind Dir Waves Ship Positions

Sunflower Hakata

Last reported at 2015-Aug-31 14:33 UTC. Time now 2015-Aug-31 15:23 UTC.
Position N 35°37' E 139°48'.

Length 194 m; draft 6.5 m.

Type: Cargo ship. MMSI: 431501764.

Date/timePositionNaut miles runAvg speedWind from/ knotsBaromVisibWave heightAir tempDewpointWater temp
2015-Aug-31 14:33N 35°37' E 139°48'0 0.0
2015-Aug-31 13:33N 35°37' E 139°48'0 0.0
2015-Aug-31 12:27N 35°37' E 139°48'0 0.0
2015-Aug-31 11:33N 35°37' E 139°48'0 0.0
2015-Aug-31 10:33N 35°37' E 139°48'0 0.0
2015-Aug-31 09:33N 35°37' E 139°48'0 0.0
2015-Aug-31 08:27N 35°37' E 139°48'0 0.0
2015-Aug-31 07:33N 35°37' E 139°48'0 0.0
2015-Aug-31 06:33N 35°37' E 139°48'0 0.0
2015-Aug-31 05:33N 35°37' E 139°48'0 0.0
2015-Aug-31 04:33N 35°37' E 139°48'0 0.0
2015-Aug-31 03:33N 35°37' E 139°48'0 0.0
2015-Aug-31 02:30N 35°37' E 139°48'0 0.0
2015-Aug-31 01:33N 35°37' E 139°48'0 0.0
2015-Aug-31 00:33N 35°37' E 139°48'0 0.0
2015-Aug-30 23:33N 35°37' E 139°48'0 0.0
2015-Aug-30 22:33N 35°37' E 139°48'0 0.0
2015-Aug-30 21:33N 35°37' E 139°48'0 0.0
2015-Aug-30 20:33N 35°37' E 139°48'7 7.3
2015-Aug-30 19:33N 35°31' E 139°52'1413.9
2015-Aug-30 18:33N 35°18' E 139°45'1514.8
2015-Aug-30 17:33N 35°03' E 139°42'6521.0
2015-Aug-30 14:26N 34°30' E 138°33'18018.2
2015-Aug-30 04:33N 34°01' E 134°59'20912.3
2015-Aug-29 11:32N 34°03' E 130°47'2121.3
2015-Aug-29 10:32N 33°56' E 130°23'1817.8
2015-Aug-29 09:33N 33°39' E 130°19'4 4.4
2015-Aug-29 08:33N 33°38' E 130°24'0 0.0
2015-Aug-29 07:30N 33°38' E 130°24'0 0.0
2015-Aug-29 06:33N 33°38' E 130°24'0 0.0
2015-Aug-29 05:18N 33°38' E 130°24'0 0.0
2015-Aug-29 04:30N 33°38' E 130°24'0 0.0
2015-Aug-29 03:33N 33°38' E 130°24'0 0.0
2015-Aug-29 02:24N 33°38' E 130°24'0 0.0
2015-Aug-29 01:24N 33°38' E 130°24'0 0.0
2015-Aug-29 00:33N 33°38' E 130°24'0 0.0
2015-Aug-28 23:33N 33°38' E 130°24'0 0.0
2015-Aug-28 22:30N 33°38' E 130°24'0 0.0
2015-Aug-28 21:12N 33°38' E 130°24'0 0.0
2015-Aug-28 20:32N 33°38' E 130°24'9 9.2
2015-Aug-28 19:33N 33°43' E 130°16'2920.0
2015-Aug-28 18:06N 34°03' E 130°42'38916.2
2015-Aug-27 18:04N 34°29' E 138°31'5522.0
2015-Aug-27 15:33N 34°58' E 139°29'2120.6
2015-Aug-27 14:33N 35°13' E 139°46'1413.6
2015-Aug-27 13:34N 35°26' E 139°46'1110.5
2015-Aug-27 12:31N 35°37' E 139°48'0 0.0
2015-Aug-27 11:31N 35°37' E 139°48'0 0.0
2015-Aug-27 10:31N 35°37' E 139°48'0 0.0
2015-Aug-27 09:31N 35°37' E 139°48'0 0.0
2015-Aug-27 08:31N 35°37' E 139°48'0 0.0
2015-Aug-27 07:31N 35°37' E 139°48'0 0.0
2015-Aug-27 06:31N 35°37' E 139°48'0 0.0
2015-Aug-27 05:32N 35°37' E 139°48'0 0.0
2015-Aug-27 04:27N 35°37' E 139°48'0 0.0
2015-Aug-27 03:32N 35°37' E 139°48'0 0.0
2015-Aug-27 02:33N 35°37' E 139°48'7 7.4
2015-Aug-27 01:34N 35°31' E 139°52'1414.1
2015-Aug-27 00:33N 35°18' E 139°45'1515.5
2015-Aug-26 23:34N 35°02' E 139°41'1413.6
2015-Aug-26 22:32N 34°54' E 139°27'5517.7
2015-Aug-26 19:25N 34°25' E 138°30'17717.9
2015-Aug-26 09:34N 34°02' E 134°58'2121.2
2015-Aug-26 08:34N 34°23' E 134°60'1313.1
2015-Aug-26 07:33N 34°36' E 134°55'20513.6
2015-Aug-25 16:31N 34°02' E 130°50'1818.5
2015-Aug-25 15:33N 33°59' E 130°29'1413.7
2015-Aug-25 14:33N 33°48' E 130°18'1211.6
2015-Aug-25 13:33N 33°37' E 130°24'0 0.4
2015-Aug-25 12:32N 33°38' E 130°24'0 0.0
2015-Aug-25 11:32N 33°38' E 130°24'0 0.0
2015-Aug-25 10:32N 33°38' E 130°24'0 0.0
2015-Aug-25 09:32N 33°38' E 130°24'0 0.1
2015-Aug-25 08:32N 33°38' E 130°24'5 5.0
2015-Aug-25 07:31N 33°39' E 130°18'0 0.1
2015-Aug-25 06:33N 33°39' E 130°18'0 0.0
2015-Aug-25 05:32N 33°39' E 130°18'0 0.1
2015-Aug-25 04:32N 33°39' E 130°18'0 0.0
2015-Aug-25 03:32N 33°39' E 130°18'2 1.9
2015-Aug-25 02:33N 33°38' E 130°16'0 0.5
2015-Aug-25 01:32N 33°38' E 130°16'0 0.1
2015-Aug-25 00:32N 33°38' E 130°16'0 0.1
2015-Aug-24 23:32N 33°38' E 130°16'0 0.0
2015-Aug-24 22:28N 33°38' E 130°16'0 0.0
2015-Aug-24 21:32N 33°38' E 130°16'0 0.1
2015-Aug-24 20:31N 33°38' E 130°16'0 0.0
2015-Aug-24 19:28N 33°38' E 130°16'0 0.0
2015-Aug-24 18:22N 33°38' E 130°16'0 0.0
2015-Aug-24 17:28N 33°38' E 130°16'0 0.0
2015-Aug-24 16:31N 33°38' E 130°16'0 0.0
2015-Aug-24 15:31N 33°38' E 130°16'0 0.0
2015-Aug-24 14:25N 33°38' E 130°16'0 0.0
2015-Aug-24 13:25N 33°38' E 130°16'0 0.0
2015-Aug-24 12:31N 33°38' E 130°16'0 0.0
2015-Aug-24 11:31N 33°38' E 130°16'0 0.0
2015-Aug-24 10:28N 33°38' E 130°16'0 0.0
2015-Aug-24 09:31N 33°38' E 130°16'0 0.0
2015-Aug-24 08:31N 33°38' E 130°16'0 0.5
2015-Aug-24 07:33N 33°38' E 130°16'7 7.0
2015-Aug-24 06:32N 33°37' E 130°24'0 0.0
2015-Aug-24 05:32N 33°37' E 130°24'0 0.0
2015-Aug-24 04:29N 33°37' E 130°24'0 0.0
2015-Aug-24 01:29N 33°37' E 130°24'0 0.0
2015-Aug-24 00:32N 33°37' E 130°24'0 0.0
2015-Aug-23 23:29N 33°37' E 130°24'0 0.0
2015-Aug-23 22:29N 33°37' E 130°24'0 0.0
2015-Aug-23 21:32N 33°37' E 130°24'0 0.0
2015-Aug-23 20:33N 33°37' E 130°24'7 7.4
2015-Aug-23 19:34N 33°40' E 130°16'1817.9
2015-Aug-23 18:33N 33°57' E 130°24'2017.3
2015-Aug-23 17:22N 34°04' E 130°47'37616.4
2015-Aug-22 18:24N 34°28' E 138°21'5819.2
2015-Aug-22 15:23N 34°55' E 139°24'1721.0
2015-Aug-22 14:33N 35°05' E 139°41'1414.2
2015-Aug-22 13:33N 35°19' E 139°43'1716.7
2015-Aug-22 12:34N 35°34' E 139°51'4 3.8
2015-Aug-22 11:32N 35°37' E 139°48'0 0.0
2015-Aug-22 10:33N 35°37' E 139°48'0 0.0
2015-Aug-22 09:31N 35°37' E 139°48'0 0.0
2015-Aug-22 08:31N 35°37' E 139°48'0 0.0
2015-Aug-22 07:28N 35°37' E 139°48'0 0.0
2015-Aug-22 06:28N 35°37' E 139°48'0 0.0
2015-Aug-22 05:31N 35°37' E 139°48'0 0.0
2015-Aug-22 04:31N 35°37' E 139°48'0 0.0
2015-Aug-22 03:28N 35°37' E 139°48'0 0.0
2015-Aug-22 02:10N 35°37' E 139°48'0 0.0
2015-Aug-22 01:31N 35°37' E 139°48'0 0.0
2015-Aug-22 00:31N 35°37' E 139°48'0 0.0
2015-Aug-21 23:31N 35°37' E 139°48'0 0.0
2015-Aug-21 22:31N 35°37' E 139°48'0 0.0
2015-Aug-21 21:28N 35°37' E 139°48'0 0.0
2015-Aug-21 20:33N 35°37' E 139°48'8 8.0
2015-Aug-21 19:34N 35°30' E 139°52'1414.0
2015-Aug-21 18:33N 35°17' E 139°45'1716.7
2015-Aug-21 17:34N 35°01' E 139°38'  
Track history (hours):
 
Tides and Currents Weather Stations Pressure Air Temp Water Temp Dewpoint Dewpoint Depression Visibility Wind Speed Wind Dir Waves Ship Positions

Sunflower Hakata

Last reported at 2015-Aug-31 14:33 UTC. Time now 2015-Aug-31 15:23 UTC.
Position N 35°37' E 139°48'.

Length 194 m; draft 6.5 m.

Type: Cargo ship. MMSI: 431501764.

Date/timePositionNaut miles runAvg speedWind from/ knotsBaromVisibWave heightAir tempDewpointWater temp
2015-Aug-31 14:33N 35°37' E 139°48'0 0.0
2015-Aug-31 13:33N 35°37' E 139°48'0 0.0
2015-Aug-31 12:27N 35°37' E 139°48'0 0.0
2015-Aug-31 11:33N 35°37' E 139°48'0 0.0
2015-Aug-31 10:33N 35°37' E 139°48'0 0.0
2015-Aug-31 09:33N 35°37' E 139°48'0 0.0
2015-Aug-31 08:27N 35°37' E 139°48'0 0.0
2015-Aug-31 07:33N 35°37' E 139°48'0 0.0
2015-Aug-31 06:33N 35°37' E 139°48'0 0.0
2015-Aug-31 05:33N 35°37' E 139°48'0 0.0
2015-Aug-31 04:33N 35°37' E 139°48'0 0.0
2015-Aug-31 03:33N 35°37' E 139°48'0 0.0
2015-Aug-31 02:30N 35°37' E 139°48'0 0.0
2015-Aug-31 01:33N 35°37' E 139°48'0 0.0
2015-Aug-31 00:33N 35°37' E 139°48'0 0.0
2015-Aug-30 23:33N 35°37' E 139°48'0 0.0
2015-Aug-30 22:33N 35°37' E 139°48'0 0.0
2015-Aug-30 21:33N 35°37' E 139°48'0 0.0
2015-Aug-30 20:33N 35°37' E 139°48'7 7.3
2015-Aug-30 19:33N 35°31' E 139°52'1413.9
2015-Aug-30 18:33N 35°18' E 139°45'1514.8
2015-Aug-30 17:33N 35°03' E 139°42'6521.0
2015-Aug-30 14:26N 34°30' E 138°33'18018.2
2015-Aug-30 04:33N 34°01' E 134°59'20912.3
2015-Aug-29 11:32N 34°03' E 130°47'2121.3
2015-Aug-29 10:32N 33°56' E 130°23'1817.8
2015-Aug-29 09:33N 33°39' E 130°19'4 4.4
2015-Aug-29 08:33N 33°38' E 130°24'0 0.0
2015-Aug-29 07:30N 33°38' E 130°24'0 0.0
2015-Aug-29 06:33N 33°38' E 130°24'0 0.0
2015-Aug-29 05:18N 33°38' E 130°24'0 0.0
2015-Aug-29 04:30N 33°38' E 130°24'0 0.0
2015-Aug-29 03:33N 33°38' E 130°24'0 0.0
2015-Aug-29 02:24N 33°38' E 130°24'0 0.0
2015-Aug-29 01:24N 33°38' E 130°24'0 0.0
2015-Aug-29 00:33N 33°38' E 130°24'0 0.0
2015-Aug-28 23:33N 33°38' E 130°24'0 0.0
2015-Aug-28 22:30N 33°38' E 130°24'0 0.0
2015-Aug-28 21:12N 33°38' E 130°24'0 0.0
2015-Aug-28 20:32N 33°38' E 130°24'9 9.2
2015-Aug-28 19:33N 33°43' E 130°16'2920.0
2015-Aug-28 18:06N 34°03' E 130°42'38916.2
2015-Aug-27 18:04N 34°29' E 138°31'5522.0
2015-Aug-27 15:33N 34°58' E 139°29'2120.6
2015-Aug-27 14:33N 35°13' E 139°46'1413.6
2015-Aug-27 13:34N 35°26' E 139°46'1110.5
2015-Aug-27 12:31N 35°37' E 139°48'0 0.0
2015-Aug-27 11:31N 35°37' E 139°48'0 0.0
2015-Aug-27 10:31N 35°37' E 139°48'0 0.0
2015-Aug-27 09:31N 35°37' E 139°48'0 0.0
2015-Aug-27 08:31N 35°37' E 139°48'0 0.0
2015-Aug-27 07:31N 35°37' E 139°48'0 0.0
2015-Aug-27 06:31N 35°37' E 139°48'0 0.0
2015-Aug-27 05:32N 35°37' E 139°48'0 0.0
2015-Aug-27 04:27N 35°37' E 139°48'0 0.0
2015-Aug-27 03:32N 35°37' E 139°48'0 0.0
2015-Aug-27 02:33N 35°37' E 139°48'7 7.4
2015-Aug-27 01:34N 35°31' E 139°52'1414.1
2015-Aug-27 00:33N 35°18' E 139°45'1515.5
2015-Aug-26 23:34N 35°02' E 139°41'1413.6
2015-Aug-26 22:32N 34°54' E 139°27'5517.7
2015-Aug-26 19:25N 34°25' E 138°30'17717.9
2015-Aug-26 09:34N 34°02' E 134°58'2121.2
2015-Aug-26 08:34N 34°23' E 134°60'1313.1
2015-Aug-26 07:33N 34°36' E 134°55'20513.6
2015-Aug-25 16:31N 34°02' E 130°50'1818.5
2015-Aug-25 15:33N 33°59' E 130°29'1413.7
2015-Aug-25 14:33N 33°48' E 130°18'1211.6
2015-Aug-25 13:33N 33°37' E 130°24'0 0.4
2015-Aug-25 12:32N 33°38' E 130°24'0 0.0
2015-Aug-25 11:32N 33°38' E 130°24'0 0.0
2015-Aug-25 10:32N 33°38' E 130°24'0 0.0
2015-Aug-25 09:32N 33°38' E 130°24'0 0.1
2015-Aug-25 08:32N 33°38' E 130°24'5 5.0
2015-Aug-25 07:31N 33°39' E 130°18'0 0.1
2015-Aug-25 06:33N 33°39' E 130°18'0 0.0
2015-Aug-25 05:32N 33°39' E 130°18'0 0.1
2015-Aug-25 04:32N 33°39' E 130°18'0 0.0
2015-Aug-25 03:32N 33°39' E 130°18'2 1.9
2015-Aug-25 02:33N 33°38' E 130°16'0 0.5
2015-Aug-25 01:32N 33°38' E 130°16'0 0.1
2015-Aug-25 00:32N 33°38' E 130°16'0 0.1
2015-Aug-24 23:32N 33°38' E 130°16'0 0.0
2015-Aug-24 22:28N 33°38' E 130°16'0 0.0
2015-Aug-24 21:32N 33°38' E 130°16'0 0.1
2015-Aug-24 20:31N 33°38' E 130°16'0 0.0
2015-Aug-24 19:28N 33°38' E 130°16'0 0.0
2015-Aug-24 18:22N 33°38' E 130°16'0 0.0
2015-Aug-24 17:28N 33°38' E 130°16'0 0.0
2015-Aug-24 16:31N 33°38' E 130°16'0 0.0
2015-Aug-24 15:31N 33°38' E 130°16'0 0.0
2015-Aug-24 14:25N 33°38' E 130°16'0 0.0
2015-Aug-24 13:25N 33°38' E 130°16'0 0.0
2015-Aug-24 12:31N 33°38' E 130°16'0 0.0
2015-Aug-24 11:31N 33°38' E 130°16'0 0.0
2015-Aug-24 10:28N 33°38' E 130°16'0 0.0
2015-Aug-24 09:31N 33°38' E 130°16'0 0.0
2015-Aug-24 08:31N 33°38' E 130°16'0 0.5
2015-Aug-24 07:33N 33°38' E 130°16'7 7.0
2015-Aug-24 06:32N 33°37' E 130°24'0 0.0
2015-Aug-24 05:32N 33°37' E 130°24'0 0.0
2015-Aug-24 04:29N 33°37' E 130°24'0 0.0
2015-Aug-24 01:29N 33°37' E 130°24'0 0.0
2015-Aug-24 00:32N 33°37' E 130°24'0 0.0
2015-Aug-23 23:29N 33°37' E 130°24'0 0.0
2015-Aug-23 22:29N 33°37' E 130°24'0 0.0
2015-Aug-23 21:32N 33°37' E 130°24'0 0.0
2015-Aug-23 20:33N 33°37' E 130°24'7 7.4
2015-Aug-23 19:34N 33°40' E 130°16'1817.9
2015-Aug-23 18:33N 33°57' E 130°24'2017.3
2015-Aug-23 17:22N 34°04' E 130°47'37616.4
2015-Aug-22 18:24N 34°28' E 138°21'5819.2
2015-Aug-22 15:23N 34°55' E 139°24'1721.0
2015-Aug-22 14:33N 35°05' E 139°41'1414.2
2015-Aug-22 13:33N 35°19' E 139°43'1716.7
2015-Aug-22 12:34N 35°34' E 139°51'4 3.8
2015-Aug-22 11:32N 35°37' E 139°48'0 0.0
2015-Aug-22 10:33N 35°37' E 139°48'0 0.0
2015-Aug-22 09:31N 35°37' E 139°48'0 0.0
2015-Aug-22 08:31N 35°37' E 139°48'0 0.0
2015-Aug-22 07:28N 35°37' E 139°48'0 0.0
2015-Aug-22 06:28N 35°37' E 139°48'0 0.0
2015-Aug-22 05:31N 35°37' E 139°48'0 0.0
2015-Aug-22 04:31N 35°37' E 139°48'0 0.0
2015-Aug-22 03:28N 35°37' E 139°48'0 0.0
2015-Aug-22 02:10N 35°37' E 139°48'0 0.0
2015-Aug-22 01:31N 35°37' E 139°48'0 0.0
2015-Aug-22 00:31N 35°37' E 139°48'0 0.0
2015-Aug-21 23:31N 35°37' E 139°48'0 0.0
2015-Aug-21 22:31N 35°37' E 139°48'0 0.0
2015-Aug-21 21:28N 35°37' E 139°48'0 0.0
2015-Aug-21 20:33N 35°37' E 139°48'8 8.0
2015-Aug-21 19:34N 35°30' E 139°52'1414.0
2015-Aug-21 18:33N 35°17' E 139°45'1716.7
2015-Aug-21 17:34N 35°01' E 139°38'  

Dump ship's entire track history